createdAt,value
2019-03-20T00:00:23.913Z,4.00
2019-03-20T00:03:12.378Z,4.00
2019-03-20T00:06:00.283Z,3.90
2019-03-20T00:08:48.479Z,3.80
2019-03-20T00:11:36.318Z,3.80
2019-03-20T00:14:24.635Z,3.80
2019-03-20T00:17:12.487Z,3.70
2019-03-20T00:20:00.723Z,3.60
2019-03-20T00:22:48.903Z,3.60
2019-03-20T00:25:36.583Z,3.60
2019-03-20T00:28:25.060Z,3.60
2019-03-20T00:31:13.462Z,3.60
2019-03-20T00:34:01.527Z,3.50
2019-03-20T00:36:49.743Z,3.50
2019-03-20T00:39:37.806Z,3.50
2019-03-20T00:42:26.395Z,3.50
2019-03-20T00:45:14.163Z,3.40
2019-03-20T00:48:02.255Z,3.40
2019-03-20T00:50:50.935Z,3.40
2019-03-20T00:53:39.235Z,3.40
2019-03-20T00:56:26.737Z,3.40
2019-03-20T00:59:14.954Z,3.30
2019-03-20T01:02:03.351Z,3.30
2019-03-20T01:04:50.903Z,3.20
2019-03-20T01:07:39.343Z,3.10
2019-03-20T01:10:27.698Z,3.10
2019-03-20T01:13:16.226Z,3.10
2019-03-20T01:16:03.738Z,3.30
2019-03-20T01:18:52.296Z,3.30
2019-03-20T01:21:40.711Z,3.20
2019-03-20T01:24:29.133Z,3.10
2019-03-20T01:27:17.474Z,3.10
2019-03-20T01:30:06.274Z,3.00
2019-03-20T01:32:54.395Z,3.10
2019-03-20T01:35:42.697Z,3.10
2019-03-20T01:38:31.836Z,3.00
2019-03-20T01:41:20.228Z,3.00
2019-03-20T01:44:09.003Z,3.00
2019-03-20T01:46:56.960Z,2.90
2019-03-20T01:49:45.111Z,2.90
2019-03-20T01:52:32.998Z,2.90
2019-03-20T01:55:21.074Z,2.90
2019-03-20T01:58:09.128Z,2.90
2019-03-20T02:00:57.395Z,2.80
2019-03-20T02:03:45.324Z,2.80
2019-03-20T02:06:33.385Z,2.90
2019-03-20T02:09:21.590Z,2.80
2019-03-20T02:12:10.552Z,2.80
2019-03-20T02:14:58.437Z,2.80
2019-03-20T02:17:47.586Z,2.80
2019-03-20T02:20:35.463Z,2.70
2019-03-20T02:23:23.591Z,2.70
2019-03-20T02:26:11.823Z,2.70
2019-03-20T02:28:59.982Z,2.60
2019-03-20T02:31:48.122Z,2.70
2019-03-20T02:34:36.009Z,2.60
2019-03-20T02:37:23.842Z,2.60
2019-03-20T02:40:12.244Z,2.50
2019-03-20T02:43:00.199Z,2.60
2019-03-20T02:45:48.330Z,2.50
2019-03-20T02:48:36.434Z,2.50
2019-03-20T02:51:25.025Z,2.50
2019-03-20T02:54:13.427Z,2.50
2019-03-20T02:57:01.631Z,2.50
2019-03-20T02:59:50.022Z,2.50
2019-03-20T03:02:37.661Z,2.40
2019-03-20T03:05:25.950Z,2.40
2019-03-20T03:08:14.687Z,2.30
2019-03-20T03:11:03.007Z,2.40
2019-03-20T03:13:51.328Z,2.40
2019-03-20T03:16:39.132Z,2.40
2019-03-20T03:19:27.482Z,2.40
2019-03-20T03:22:16.048Z,2.40
2019-03-20T03:25:05.180Z,2.30
2019-03-20T03:27:53.512Z,2.30
2019-03-20T03:30:42.146Z,2.30
2019-03-20T03:33:29.941Z,2.40
2019-03-20T03:36:21.498Z,2.40
2019-03-20T03:39:08.617Z,2.40
2019-03-20T03:41:56.580Z,2.30
2019-03-20T03:44:44.777Z,2.40
2019-03-20T03:47:32.328Z,2.40
2019-03-20T03:50:20.403Z,2.30
2019-03-20T03:53:08.592Z,2.30
2019-03-20T03:55:56.800Z,2.30
2019-03-20T03:58:45.036Z,2.20
2019-03-20T04:01:33.323Z,2.20
2019-03-20T04:04:21.749Z,2.20
2019-03-20T04:07:10.017Z,2.10
2019-03-20T04:09:58.299Z,2.10
2019-03-20T04:12:45.928Z,2.10
2019-03-20T04:15:36.426Z,2.10
2019-03-20T04:18:24.429Z,2.10
2019-03-20T04:21:12.221Z,2.10
2019-03-20T04:24:00.153Z,2.10
2019-03-20T04:26:48.402Z,2.00
2019-03-20T04:29:36.863Z,1.90
2019-03-20T04:32:24.987Z,2.00
2019-03-20T04:35:12.970Z,2.00
2019-03-20T04:38:01.235Z,2.00
2019-03-20T04:40:49.186Z,2.00
2019-03-20T04:43:37.460Z,2.00
2019-03-20T04:46:25.168Z,2.00
2019-03-20T04:49:13.479Z,1.90
2019-03-20T04:52:01.391Z,1.90
2019-03-20T04:54:49.744Z,1.90
2019-03-20T04:57:37.691Z,1.90
2019-03-20T05:00:26.285Z,1.80
2019-03-20T05:03:14.655Z,1.80
2019-03-20T05:06:03.052Z,1.80
2019-03-20T05:08:51.011Z,1.90
2019-03-20T05:11:39.233Z,1.90
2019-03-20T05:14:27.754Z,1.90
2019-03-20T05:17:16.661Z,1.90
2019-03-20T05:20:06.268Z,1.90
2019-03-20T05:22:54.623Z,1.90
2019-03-20T05:25:42.668Z,1.90
2019-03-20T05:28:30.451Z,2.00
2019-03-20T05:31:18.612Z,2.00
2019-03-20T05:34:06.246Z,2.00
2019-03-20T05:36:54.687Z,2.00
2019-03-20T05:39:42.264Z,2.00
2019-03-20T05:42:30.531Z,2.00
2019-03-20T05:45:19.092Z,2.00
2019-03-20T05:48:07.745Z,2.10
2019-03-20T05:50:55.514Z,2.10
2019-03-20T05:53:43.167Z,2.20
2019-03-20T05:56:31.369Z,2.10
2019-03-20T05:59:18.901Z,2.20
2019-03-20T06:02:07.451Z,2.30
2019-03-20T06:04:56.283Z,2.40
2019-03-20T06:07:44.458Z,2.50
2019-03-20T06:10:32.011Z,2.60
2019-03-20T06:13:19.988Z,2.60
2019-03-20T06:16:08.171Z,2.80
2019-03-20T06:18:56.470Z,2.90
2019-03-20T06:21:44.695Z,3.00
2019-03-20T06:24:32.503Z,3.10
2019-03-20T06:27:20.623Z,3.20
2019-03-20T06:30:11.867Z,3.30
2019-03-20T06:33:00.027Z,3.60
2019-03-20T06:35:47.535Z,4.00
2019-03-20T06:38:35.495Z,4.30
2019-03-20T06:41:24.206Z,4.70
2019-03-20T06:44:13.023Z,4.90
2019-03-20T06:47:00.817Z,5.00
2019-03-20T06:49:48.953Z,5.30
2019-03-20T06:52:36.931Z,5.30
2019-03-20T06:55:24.559Z,5.40
2019-03-20T06:58:12.780Z,5.50
2019-03-20T07:01:13.072Z,5.60
2019-03-20T07:04:32.524Z,5.80
2019-03-20T07:07:43.683Z,5.90
2019-03-20T07:11:06.297Z,6.00
2019-03-20T07:13:54.954Z,6.20
2019-03-20T07:16:42.731Z,6.50
2019-03-20T07:19:30.775Z,6.80
2019-03-20T07:22:19.155Z,7.00
2019-03-20T07:25:08.190Z,7.10
2019-03-20T07:27:56.519Z,7.20
2019-03-20T07:30:48.110Z,7.50
2019-03-20T07:33:36.327Z,7.90
2019-03-20T07:36:24.810Z,8.00
2019-03-20T07:39:13.263Z,8.20
2019-03-20T07:42:01.852Z,8.40
2019-03-20T07:44:49.323Z,8.80
2019-03-20T07:47:37.702Z,9.00
2019-03-20T07:50:25.230Z,9.30
2019-03-20T07:53:13.537Z,9.40
2019-03-20T07:56:01.108Z,9.60
2019-03-20T07:58:49.587Z,9.50
2019-03-20T08:01:37.894Z,9.90
2019-03-20T08:04:25.795Z,10.20
2019-03-20T08:07:13.567Z,10.30
2019-03-20T08:10:01.731Z,10.20
2019-03-20T08:12:50.263Z,10.00
2019-03-20T08:15:38.519Z,9.80
2019-03-20T08:18:26.741Z,10.10
2019-03-20T08:21:14.712Z,10.50
2019-03-20T08:24:02.267Z,10.40
2019-03-20T08:26:50.324Z,10.20
2019-03-20T08:29:38.558Z,10.20
2019-03-20T08:32:27.023Z,10.00
2019-03-20T08:35:15.758Z,9.80
2019-03-20T08:38:04.491Z,9.90
2019-03-20T08:40:52.615Z,10.00
2019-03-20T08:43:41.090Z,10.30
2019-03-20T08:46:29.553Z,10.50
2019-03-20T08:49:17.599Z,10.80
2019-03-20T08:52:05.683Z,10.40
2019-03-20T08:54:53.627Z,10.10
2019-03-20T08:57:42.011Z,9.90
2019-03-20T09:00:41.003Z,10.70
2019-03-20T09:03:28.898Z,11.60
2019-03-20T09:06:16.379Z,12.30
2019-03-20T09:09:06.921Z,12.80
2019-03-20T09:11:54.958Z,13.00
2019-03-20T09:14:42.999Z,12.70
2019-03-20T09:17:31.460Z,12.70
2019-03-20T09:20:19.767Z,13.10
2019-03-20T09:23:08.351Z,13.00
2019-03-20T09:25:55.984Z,13.10
2019-03-20T09:28:44.203Z,14.00
2019-03-20T09:31:32.127Z,15.00
2019-03-20T09:34:20.424Z,14.80
2019-03-20T09:37:08.939Z,14.90
2019-03-20T09:39:56.686Z,15.10
2019-03-20T09:42:44.707Z,14.20
2019-03-20T09:45:32.335Z,13.70
2019-03-20T09:48:20.002Z,14.50
2019-03-20T09:51:08.415Z,15.40
2019-03-20T09:53:56.566Z,15.80
2019-03-20T09:56:44.115Z,16.10
2019-03-20T09:59:32.441Z,15.60
2019-03-20T10:02:20.633Z,15.50
2019-03-20T10:05:08.807Z,15.40
2019-03-20T10:07:57.211Z,15.60
2019-03-20T10:10:45.120Z,15.40
2019-03-20T10:13:33.344Z,15.20
2019-03-20T10:16:20.843Z,14.70
2019-03-20T10:19:09.014Z,14.30
2019-03-20T10:21:57.135Z,14.30
2019-03-20T10:24:44.676Z,14.20
2019-03-20T10:27:32.963Z,14.00
2019-03-20T10:30:22.192Z,14.20
2019-03-20T10:33:10.061Z,14.30
2019-03-20T10:35:58.602Z,14.60
2019-03-20T10:38:48.799Z,14.50
2019-03-20T10:41:37.243Z,14.70
2019-03-20T10:44:24.884Z,14.80
2019-03-20T10:47:12.544Z,15.00
2019-03-20T10:50:00.897Z,14.90
2019-03-20T10:52:49.569Z,15.20
2019-03-20T10:55:37.852Z,15.50
2019-03-20T10:58:26.314Z,15.30
2019-03-20T11:01:14.371Z,15.40
2019-03-20T11:04:02.737Z,15.20
2019-03-20T11:06:50.647Z,14.90
2019-03-20T11:09:39.498Z,14.20
2019-03-20T11:12:27.825Z,14.20
2019-03-20T11:15:16.799Z,13.70
2019-03-20T11:18:04.703Z,14.00
2019-03-20T11:20:53.697Z,14.40
2019-03-20T11:23:41.602Z,14.70
2019-03-20T11:26:30.115Z,14.50
2019-03-20T11:29:21.516Z,14.50
2019-03-20T11:32:07.996Z,14.60
2019-03-20T11:34:56.485Z,14.80
2019-03-20T11:37:45.421Z,14.80
2019-03-20T11:40:33.547Z,14.20
2019-03-20T11:43:21.539Z,14.40
2019-03-20T11:46:10.067Z,14.50
2019-03-20T11:48:58.317Z,14.50
2019-03-20T11:51:46.851Z,14.80
2019-03-20T11:54:35.145Z,15.40
2019-03-20T11:57:22.765Z,15.70
2019-03-20T12:00:13.158Z,15.90
2019-03-20T12:03:01.519Z,15.80
2019-03-20T12:05:50.007Z,15.60
2019-03-20T12:08:38.203Z,14.50
2019-03-20T12:11:26.430Z,14.30
2019-03-20T12:14:14.638Z,14.10
2019-03-20T12:17:03.381Z,13.90
2019-03-20T12:19:51.732Z,14.00
2019-03-20T12:22:39.826Z,14.10
2019-03-20T12:25:28.647Z,13.90
2019-03-20T12:28:17.252Z,13.90
2019-03-20T12:31:06.727Z,13.90
2019-03-20T12:33:55.657Z,13.80
2019-03-20T12:36:43.895Z,13.80
2019-03-20T12:39:32.443Z,13.90
2019-03-20T12:42:21.163Z,13.70
2019-03-20T12:45:11.359Z,13.80
2019-03-20T12:47:59.786Z,13.70
2019-03-20T12:50:47.581Z,13.80
2019-03-20T12:53:35.206Z,13.70
2019-03-20T12:56:23.411Z,13.70
2019-03-20T12:59:11.502Z,13.70
2019-03-20T13:01:59.497Z,13.70
2019-03-20T13:04:47.740Z,13.90
2019-03-20T13:07:35.775Z,14.20
2019-03-20T13:10:23.871Z,14.30
2019-03-20T13:13:12.537Z,14.40
2019-03-20T13:16:00.907Z,14.50
2019-03-20T13:18:49.403Z,14.60
2019-03-20T13:21:37.924Z,14.60
2019-03-20T13:24:25.725Z,14.50
2019-03-20T13:27:14.289Z,14.60
2019-03-20T13:30:02.431Z,14.60
2019-03-20T13:32:50.687Z,14.60
2019-03-20T13:35:39.663Z,14.30
2019-03-20T13:38:27.683Z,14.10
2019-03-20T13:41:15.493Z,13.90
2019-03-20T13:44:03.386Z,13.80
2019-03-20T13:46:51.543Z,13.80
2019-03-20T13:49:39.727Z,13.90
2019-03-20T13:52:27.909Z,14.00
2019-03-20T13:55:16.291Z,13.90
2019-03-20T13:58:03.942Z,14.00
2019-03-20T14:00:52.651Z,14.10
2019-03-20T14:03:41.139Z,14.00
2019-03-20T14:06:29.093Z,13.90
2019-03-20T14:09:16.645Z,14.10
2019-03-20T14:12:05.157Z,14.20
2019-03-20T14:14:52.982Z,14.30
2019-03-20T14:17:41.791Z,14.20
2019-03-20T14:20:29.595Z,14.00
2019-03-20T14:23:17.975Z,13.90
2019-03-20T14:26:06.361Z,13.90
2019-03-20T14:28:54.661Z,13.90
2019-03-20T14:31:42.673Z,14.00
2019-03-20T14:34:31.207Z,14.20
2019-03-20T14:37:19.655Z,14.20
2019-03-20T14:40:09.191Z,14.20
2019-03-20T14:42:57.361Z,14.20
2019-03-20T14:45:45.797Z,14.10
2019-03-20T14:48:34.331Z,14.30
2019-03-20T14:51:22.503Z,14.60
2019-03-20T14:54:10.583Z,14.60
2019-03-20T14:56:58.448Z,14.70
2019-03-20T14:59:46.559Z,14.60
2019-03-20T15:02:34.767Z,14.30
2019-03-20T15:05:23.072Z,14.10
2019-03-20T15:08:11.691Z,14.00
2019-03-20T15:11:00.130Z,13.80
2019-03-20T15:13:48.483Z,13.70
2019-03-20T15:16:36.538Z,13.60
2019-03-20T15:19:24.768Z,13.60
2019-03-20T15:22:12.996Z,13.50
2019-03-20T15:25:00.872Z,13.60
2019-03-20T15:27:49.203Z,13.60
2019-03-20T15:30:36.769Z,13.60
2019-03-20T15:33:25.194Z,13.50
2019-03-20T15:36:13.399Z,13.40
2019-03-20T15:39:01.322Z,13.30
2019-03-20T15:41:50.070Z,13.30
2019-03-20T15:44:38.104Z,13.30
2019-03-20T15:47:26.679Z,13.30
2019-03-20T15:50:15.966Z,13.30
2019-03-20T15:53:04.335Z,13.30
2019-03-20T15:55:52.403Z,13.30
2019-03-20T15:58:40.876Z,13.20
2019-03-20T16:01:29.489Z,13.20
2019-03-20T16:04:17.887Z,13.20
2019-03-20T16:07:05.959Z,13.20
2019-03-20T16:09:54.135Z,13.10
2019-03-20T16:12:42.324Z,13.10
2019-03-20T16:15:30.960Z,13.10
2019-03-20T16:18:19.226Z,13.20
2019-03-20T16:21:07.134Z,13.20
2019-03-20T16:23:55.662Z,13.10
2019-03-20T16:26:44.280Z,13.20
2019-03-20T16:29:32.605Z,13.10
2019-03-20T16:32:20.588Z,13.20
2019-03-20T16:35:08.974Z,13.20
2019-03-20T16:37:56.793Z,13.20
2019-03-20T16:40:44.332Z,13.30
2019-03-20T16:43:32.270Z,13.20
2019-03-20T16:46:20.654Z,13.10
2019-03-20T16:49:08.908Z,13.00
2019-03-20T16:51:57.139Z,13.00
2019-03-20T16:54:44.874Z,12.90
2019-03-20T16:57:33.318Z,12.80
2019-03-20T17:00:25.351Z,12.80
2019-03-20T17:03:13.735Z,12.80
2019-03-20T17:06:01.839Z,12.80
2019-03-20T17:08:49.739Z,12.70
2019-03-20T17:11:38.598Z,12.70
2019-03-20T17:14:26.930Z,12.70
2019-03-20T17:17:15.316Z,12.70
2019-03-20T17:20:03.379Z,12.70
2019-03-20T17:22:52.075Z,12.60
2019-03-20T17:25:39.810Z,12.40
2019-03-20T17:28:27.907Z,12.40
2019-03-20T17:31:16.071Z,12.30
2019-03-20T17:34:04.226Z,12.20
2019-03-20T17:36:52.426Z,12.10
2019-03-20T17:39:40.533Z,12.00
2019-03-20T17:42:28.057Z,12.00
2019-03-20T17:45:16.963Z,11.90
2019-03-20T17:48:05.530Z,11.90
2019-03-20T17:50:54.059Z,11.90
2019-03-20T17:53:42.018Z,11.80
2019-03-20T17:56:29.580Z,11.80
2019-03-20T17:59:17.827Z,11.80
2019-03-20T18:02:06.320Z,11.80
2019-03-20T18:04:54.480Z,11.80
2019-03-20T18:07:42.774Z,11.70
2019-03-20T18:10:30.707Z,11.70
2019-03-20T18:13:19.295Z,11.70
2019-03-20T18:16:06.904Z,11.60
2019-03-20T18:18:54.908Z,11.60
2019-03-20T18:21:42.675Z,11.50
2019-03-20T18:24:30.699Z,11.40
2019-03-20T18:27:18.463Z,11.40
2019-03-20T18:30:13.339Z,11.40
2019-03-20T18:33:01.776Z,11.40
2019-03-20T18:35:49.398Z,11.40
2019-03-20T18:38:38.077Z,11.40
2019-03-20T18:41:26.636Z,11.40
2019-03-20T18:44:15.643Z,11.40
2019-03-20T18:47:03.905Z,11.40
2019-03-20T18:49:52.115Z,11.40
2019-03-20T18:52:40.811Z,11.40
2019-03-20T18:55:29.459Z,11.40
2019-03-20T18:58:17.689Z,11.40
2019-03-20T19:01:05.868Z,11.40
2019-03-20T19:03:54.362Z,11.30
2019-03-20T19:06:42.435Z,11.30
2019-03-20T19:09:31.091Z,11.30
2019-03-20T19:12:19.577Z,11.20
2019-03-20T19:15:08.259Z,11.10
2019-03-20T19:17:56.511Z,11.00
2019-03-20T19:20:44.616Z,10.90
2019-03-20T19:23:33.047Z,10.80
2019-03-20T19:26:21.371Z,10.80
2019-03-20T19:29:09.255Z,10.80
2019-03-20T19:31:57.399Z,10.70
2019-03-20T19:34:45.765Z,10.70
2019-03-20T19:37:34.016Z,10.70
2019-03-20T19:40:21.877Z,10.80
2019-03-20T19:43:09.489Z,10.70
2019-03-20T19:45:57.387Z,10.70
2019-03-20T19:48:45.666Z,10.70
2019-03-20T19:51:33.245Z,10.80
2019-03-20T19:54:21.136Z,10.80
2019-03-20T19:57:09.085Z,10.70
2019-03-20T19:59:57.350Z,10.70
2019-03-20T20:02:44.900Z,10.70
2019-03-20T20:05:33.244Z,10.70
2019-03-20T20:08:21.741Z,10.80
2019-03-20T20:11:09.726Z,10.80
2019-03-20T20:13:57.392Z,10.80
2019-03-20T20:16:45.039Z,10.90
2019-03-20T20:19:33.371Z,10.90
2019-03-20T20:22:20.871Z,10.80
2019-03-20T20:25:09.371Z,10.80
2019-03-20T20:27:57.588Z,10.80
2019-03-20T20:30:46.177Z,10.90
2019-03-20T20:33:34.035Z,10.90
2019-03-20T20:36:22.276Z,10.90
2019-03-20T20:39:10.636Z,10.90
2019-03-20T20:41:58.220Z,10.90
2019-03-20T20:44:47.131Z,11.00
2019-03-20T20:47:35.421Z,11.00
2019-03-20T20:50:23.719Z,11.10
2019-03-20T20:53:11.561Z,11.10
2019-03-20T20:55:59.988Z,11.10
2019-03-20T20:58:48.231Z,11.00
2019-03-20T21:01:36.716Z,10.90
2019-03-20T21:04:25.432Z,10.90
2019-03-20T21:07:13.841Z,10.80
2019-03-20T21:10:02.007Z,10.80
2019-03-20T21:12:56.194Z,10.80
2019-03-20T21:15:45.862Z,10.80
2019-03-20T21:19:07.409Z,10.80
2019-03-20T21:22:43.148Z,10.80
2019-03-20T21:25:32.584Z,10.80
2019-03-20T21:29:07.469Z,10.80
2019-03-20T21:32:05.313Z,10.80
2019-03-20T21:35:47.149Z,10.90
2019-03-20T21:38:36.041Z,10.90
2019-03-20T21:42:06.562Z,10.90
2019-03-20T21:45:35.398Z,10.90
2019-03-20T21:48:24.112Z,10.80
2019-03-20T21:51:17.639Z,10.70
2019-03-20T21:54:45.126Z,10.70
2019-03-20T21:58:22.957Z,10.70
2019-03-20T22:01:34.890Z,10.60
2019-03-20T22:04:23.665Z,10.50
2019-03-20T22:07:13.058Z,10.30
2019-03-20T22:10:40.005Z,10.20
2019-03-20T22:13:47.420Z,10.00
2019-03-20T22:17:11.540Z,9.90
2019-03-20T22:20:09.828Z,9.80
2019-03-20T22:23:18.815Z,9.70
2019-03-20T22:26:51.026Z,9.60
2019-03-20T22:29:39.172Z,9.60
2019-03-20T22:33:10.825Z,9.50
2019-03-20T22:36:20.788Z,9.40
2019-03-20T22:39:58.921Z,9.30
2019-03-20T22:42:51.801Z,9.20
2019-03-20T22:46:29.984Z,9.20
2019-03-20T22:49:46.249Z,9.10
2019-03-20T22:53:15.093Z,9.00
2019-03-20T22:56:43.871Z,9.00
2019-03-20T22:59:32.714Z,8.90
2019-03-20T23:02:29.633Z,8.80
2019-03-20T23:05:18.453Z,8.80
2019-03-20T23:08:16.164Z,8.70
2019-03-20T23:11:05.076Z,8.70
2019-03-20T23:13:53.428Z,8.70
2019-03-20T23:16:42.620Z,8.70
2019-03-20T23:19:31.799Z,8.60
2019-03-20T23:22:20.668Z,8.50
2019-03-20T23:25:09.457Z,8.30
2019-03-20T23:27:58.428Z,8.40
2019-03-20T23:30:47.243Z,8.50
2019-03-20T23:33:35.935Z,8.40
2019-03-20T23:36:25.082Z,8.40
2019-03-20T23:39:14.060Z,8.40
2019-03-20T23:42:02.811Z,8.40
2019-03-20T23:44:52.016Z,8.40
2019-03-20T23:47:54.625Z,8.30
2019-03-20T23:50:42.936Z,8.30
2019-03-20T23:53:31.712Z,8.30
2019-03-20T23:56:20.303Z,8.30
2019-03-20T23:59:09.154Z,8.30
